Normandin, Canada
Current Conditions -  °F | °C
As of 12:00 PM on Thursday 30 Oct 2014 (Local Time) from CYRJ Reporting Station
Broken Clouds Broken Clouds  
Wind Chill: 34°   Ceiling: 2500
Heat Index: 41°   Visibility: 25mi
Dew Point: 28°   Wind: 12mph
Humidity: 61%   Direction: 300°WNW
Pressure: 29.89"   Gusts: NA
Location:  48.83°N, 72.52°W
Report Text: CYRJ 301600Z 30010KT 25SM FEW010 BKN025 05/M02 A2989 RMK SF1SC7 SF TR SLP128
Loading
Personal Weather Stations






























Interactive Weather Map
Tropical Storm Tracking
New forecast layout! Learn more

10-Day Weather Forecast

Advertisements
Track Severe Weather on mobile